• Join FlightAware (Why Join?)
  • Login
  • US Flag 
02:25PM EDT


 

Airport Tracker/Info


-or-


 

Live Flight TrackerFlight Track Log ✈ N531QS ✈ 27-Jun-2013 ✈ KJAX - KTEB

Flight Track Log - Related Links

Times and Time Zones

All times are in EDT time to prevent confusion due to time zone crossing. See the N531QS flight status page for this flight to view local times or setup timezone preferences in your user account.

Time Position Orientation Groundspeed Altitude Reporting Facility
EDT Latitude Longitude Course Direction KTS MPH feet Rate Location/Type
10:23PM 31.1403 -77.9269 29° Northeast 499 574 41,000  Level Jacksonville Center
10:24PM 31.2228 -77.7939 54° Northeast 499 574 41,000  Level Jacksonville Center
10:25PM 31.3072 -77.6678 52° Northeast 493 567 41,000  Level Jacksonville Center
10:26PM 31.3919 -77.5436 51° Northeast 487 560 41,000  Level Jacksonville Center
10:27PM 31.4747 -77.4269 50° Northeast 476 548 41,000  Level Jacksonville Center
10:29PM 34.0166 -79.3459 29° Northeast  Level Estimated
10:29PM 31.6472 -77.1661 52° Northeast 485 558 41,000  Level New York Center
10:30PM 31.7331 -77.0433 51° Northeast 485 558 41,000  Level New York Center
10:31PM 31.8186 -76.9228 50° Northeast 487 560 41,000  Level New York Center
10:32PM 31.9369 -76.8094 39° Northeast 482 555 41,000  Level New York Center
10:33PM 32.0458 -76.7167 36° Northeast 482 555 41,000  Level New York Center
10:34PM 32.1547 -76.6267 35° Northeast 482 555 41,000  Level New York Center
10:35PM 32.2633 -76.5361 35° Northeast 488 562 41,000  Level New York Center
10:36PM 32.3722 -76.4378 37° Northeast 483 556 41,000  Level New York Center
10:37PM 32.4808 -76.3444 36° Northeast 483 556 41,000  Level New York Center
10:38PM 32.5897 -76.2483 37° Northeast 478 550 41,000  Level New York Center
10:39PM 32.6894 -76.1636 36° Northeast 473 544 41,000  Level New York Center
10:40PM 32.7958 -76.0719 36° Northeast 468 539 41,000  Level New York Center
10:41PM 32.9086 -75.9728 36° Northeast 475 547 41,000  Level New York Center
10:42PM 33.0128 -75.8803 37° Northeast 475 547 41,000  Level New York Center
10:43PM 33.1147 -75.7925 36° Northeast 468 539 41,000  Level New York Center
10:44PM 33.2206 -75.7047 35° Northeast 468 539 41,000  Level New York Center
10:45PM 33.3356 -75.6469 23° Northeast 454 522 41,000  Level New York Center
10:46PM 33.4583 -75.6022 17° North 447 514 41,000  Level New York Center
10:47PM 33.5750 -75.5517 20° North 447 514 41,000  Level New York Center
10:48PM 33.6939 -75.5039 18° North 453 521 41,000  Level New York Center
10:49PM 33.8231 -75.4564 17° North 453 521 41,000  Level New York Center
10:50PM 33.9417 -75.4058 19° North 453 521 41,000  Level New York Center
10:51PM 34.0647 -75.3550 19° North 453 521 41,000  Level New York Center
10:52PM 34.1897 -75.3069 18° North 448 516 41,000  Level New York Center
10:53PM 34.3064 -75.2583 19° North 449 517 41,000  Level New York Center
10:54PM 34.4311 -75.2100 18° North 449 517 41,000  Level New York Center
10:55PM 34.5400 -75.1481 25° Northeast 455 524 41,000  Level New York Center
10:56PM 34.6628 -75.0992 18° North 472 543 41,000  Level New York Center
10:57PM 34.7828 -75.0703 11° North 459 528 41,000  Level New York Center
10:58PM 34.9086 -75.1025 348° North 440 506 41,000  Level New York Center
10:59PM 35.0281 -75.1497 342° North 440 506 41,000  Level New York Center
11:00PM 35.1683 -75.2008 343° North 462 532 41,000  Level Washington Center
11:01PM 35.2894 -75.2486 342° North 462 532 41,000  Level Washington Center
11:02PM 35.4106 -75.2914 344° North 457 526 41,000  Level Washington Center
11:03PM 35.5319 -75.3369 343° North 457 526 41,000  Level Washington Center
11:04PM 35.6508 -75.3775 345° North 457 526 41,000  Level Washington Center
11:05PM 35.7719 -75.4256 342° North 452 520 41,000  Level Washington Center
11:06PM 35.8908 -75.4717 343° North 452 520 41,000  Level Washington Center
11:07PM 36.0119 -75.5203 342° North 452 520 41,000  Level Washington Center
11:08PM 36.1350 -75.5639 344° North 452 520 41,000  Level Washington Center
11:09PM 36.2603 -75.6100 343° North 457 526 41,000  Level Washington Center
11:10PM 36.3792 -75.6564 343° North 462 532 41,000  Level Washington Center
11:11PM 36.5022 -75.7031 343° North 462 532 41,000  Level Washington Center
11:12PM 36.6253 -75.7497 343° North 462 532 41,000  Level Washington Center
11:13PM 36.7506 -75.7942 344° North 462 532 41,000  Level Washington Center
11:14PM 36.8631 -75.8436 341° North 462 532 41,000  Level Washington Center
11:15PM 37.0111 -75.8961 344° North 485 558 41,000  Level Washington Center
11:16PM 37.1278 -75.9461 341° North 475 547 41,000  Level Washington Center
11:17PM 37.2422 -75.9911 343° North 446 513 41,000  Level Washington Center
11:18PM 37.3589 -76.0361 343° North 439 505 41,000  Level Washington Center
11:19PM 37.4631 -76.0786 342° North 439 505 41,000  Level Washington Center
11:20PM 37.5817 -76.1239 343° North 439 505 41,000  Level Washington Center
11:21PM 37.7047 -76.1692 344° North 439 505 41,000  Level Washington Center
11:22PM 37.8211 -76.2147 343° North 439 505 41,000  Level Washington Center
11:23PM 37.9397 -76.2606 343° North 439 505 41,000 -360 Level Washington Center
11:24PM 38.0583 -76.3092 342° North 439 505 40,300 -1,380 Descending Washington Center
11:25PM 38.1769 -76.3497 345° North 439 505 38,300 -2,040 Descending Washington Center
11:26PM 38.2958 -76.3508 360° North 446 513 36,400 -2,040 Descending Washington Center
11:27PM 38.4378 -76.3367 North 452 520 34,300 -2,100 Descending Washington Center
11:28PM 38.5733 -76.3167 North 472 543 32,300 -1,920 Descending Washington Center
11:29PM 38.7089 -76.3019 North 483 556 30,400 -2,040 Descending Washington Center
11:30PM 38.8447 -76.2819 North 483 556 28,300 -2,040 Descending Washington Center
11:31PM 38.9781 -76.2619 North 483 556 26,400 -1,920 Descending Washington Center
11:32PM 39.1056 -76.2308 11° North 471 542 24,500 -1,260 Descending Washington Center
11:33PM 39.2100 -76.1594 28° Northeast 456 525 24,000 -300 Descending Washington Center
11:34PM 39.3125 -76.0583 37° Northeast 461 531 24,000 -600 Level Washington Center
11:35PM 39.4172 -75.9594 36° Northeast 461 531 22,900 -2,340 Descending Washington Center
11:37PM 39.6000 -75.7833 37° Northeast 434 499 17,800 -2,880 Descending Philadelphia TRACON
11:38PM 39.6833 -75.7000 38° Northeast 422 486 15,200 -2,220 Descending Philadelphia TRACON
11:39PM 39.8000 -75.6000 33° Northeast 413 475 13,000 -1,140 Descending Philadelphia TRACON
11:40PM 39.8833 -75.5167 37° Northeast 409 471 13,000  Level Philadelphia TRACON
11:41PM 39.9667 -75.4333 37° Northeast 407 468 13,000  Level Philadelphia TRACON
11:42PM 40.0833 -75.3333 33° Northeast 415 478 13,000  Level Philadelphia TRACON
11:43PM 40.1500 -75.2667 37° Northeast 392 451 13,000 -960 Level Philadelphia TRACON
11:44PM 40.2333 -75.2000 31° Northeast 332 382 11,400 -1,440 Descending Philadelphia TRACON
11:45PM 40.3167 -75.1167 37° Northeast 311 358 9,900 -1,680 Descending Philadelphia TRACON
11:46PM 40.3667 -75.0333 52° Northeast 314 361 7,900 -1,500 Descending Philadelphia TRACON
11:47PM 40.4333 -74.9667 37° Northeast 301 346 7,000 -480 Descending New York TRACON
11:48PM 40.4833 -74.8833 52° Northeast 297 342 7,000 -300 Level New York TRACON
11:49PM 40.5333 -74.8000 52° Northeast 293 337 6,500 -1,200 Descending New York TRACON
11:50PM 40.6000 -74.7333 37° Northeast 281 323 4,700 -1,260 Descending New York TRACON
11:51PM 40.6667 -74.6833 30° Northeast 279 321 4,000 -360 Descending New York TRACON
11:52PM 40.7333 -74.6333 30° Northeast 276 318 4,000 -420 Level New York TRACON
11:53PM 40.8000 -74.6000 21° North 273 314 3,200 -540 Descending New York TRACON
11:54PM 40.8333 -74.5167 62° Northeast 256 295 3,000 -120 Descending New York TRACON
11:55PM 40.8667 -74.4333 62° Northeast 253 291 3,000  Level New York TRACON
11:56PM 40.9000 -74.3667 57° Northeast 252 290 3,000 -360 Level New York TRACON
11:57PM 40.9333 -74.2833 62° Northeast 251 289 2,400 -540 Descending New York TRACON
11:58PM 40.9500 -74.2000 75° East 217 250 2,000 -240 Descending New York TRACON
11:59PM 40.9667 -74.1333 72° East 216 249 2,000 -300 Level New York TRACON
12:00AM 40.9333 -74.0667 123° Southeast 170 196 1,400 -480 Descending New York TRACON
12:01AM 40.9167 -74.0500 143° Southeast 126 145 1,100 -480 Descending New York TRACON
12:02AM 40.8833 -74.0667 201° Southwest 119 137 400 -720 Descending New York TRACON